Time;durP1;ratioP1;P1;durP2;ratioP2;P2;SDS_P1;SDS_P2;PMS_P1;PMS_P2;Temp;Humidity;BMP_temperature;BMP_pressure;BME280_temperature;BME280_humidity;BME280_pressure;Samples;Min_cycle;Max_cycle;Signal;HPM_P1;HPM_P2
2022/06/02 00:01:05;;;;;;;;;;;10.30;99.90;;;;;;4985695;28;38989;-57
2022/06/02 00:03:36;;;;;;;;;;;10.30;99.90;;;;;;4986504;28;38164;-56
2022/06/02 00:06:11;;;;;;;;;;;10.30;99.90;;;;;;4986673;28;35750;-57
2022/06/02 00:08:46;;;;;;;;;;;10.30;99.90;;;;;;4985394;28;38295;-57
2022/06/02 00:11:19;;;;;;;;;;;10.20;99.90;;;;;;4985643;28;37885;-56
2022/06/02 00:13:55;;;;;;;;;;;10.20;99.90;;;;;;4986878;28;38110;-56
2022/06/02 00:16:28;;;;;;;;;;;10.20;99.90;;;;;;4986354;28;37846;-56
2022/06/02 00:18:57;;;;;;;;;;;10.20;99.90;;;;;;4986227;28;39319;-56
2022/06/02 00:21:28;;;;;;;;;;;10.20;99.90;;;;;;4986435;28;38343;-56
2022/06/02 00:23:57;;;;;;;;;;;10.20;99.90;;;;;;4985044;28;36614;-57
2022/06/02 00:26:31;;;;;;;;;;;10.30;99.90;;;;;;4985966;28;37986;-57
2022/06/02 00:29:04;;;;;;;;;;;10.20;99.90;;;;;;4986054;28;36912;-56
2022/06/02 00:31:37;;;;;;;;;;;10.20;99.90;;;;;;4985947;28;37915;-57
2022/06/02 00:34:09;;;;;;;;;;;10.20;99.90;;;;;;4986705;28;41344;-57
2022/06/02 00:36:39;;;;;;;;;;;10.20;99.90;;;;;;4986759;28;36003;-57
2022/06/02 00:39:08;;;;;;;;;;;10.20;99.90;;;;;;4984709;28;36160;-56
2022/06/02 00:41:42;;;;;;;;;;;10.10;99.90;;;;;;4986137;28;41045;-56
2022/06/02 00:44:16;;;;;;;;;;;10.10;99.90;;;;;;4985865;28;38461;-56
2022/06/02 00:46:50;;;;;;;;;;;10.10;99.90;;;;;;4985931;28;38492;-56
2022/06/02 00:49:20;;;;;;;;;;;10.10;99.90;;;;;;4986359;28;36359;-56
2022/06/02 00:51:52;;;;;;;;;;;10.10;99.90;;;;;;4985335;28;38892;-56
2022/06/02 00:57:35;;;;;;;;;;;10.10;99.90;;;;;;4986296;28;38169;-56
2022/06/02 01:00:11;;;;;;;;;;;10.00;99.90;;;;;;4984228;28;35015;-56
2022/06/02 01:02:41;;;;;;;;;;;10.00;99.90;;;;;;4983641;28;37813;-56
2022/06/02 01:05:09;;;;;;;;;;;10.00;99.90;;;;;;4983685;28;37962;-56
2022/06/02 01:07:41;;;;;;;;;;;10.00;99.90;;;;;;4985560;28;36760;-57
2022/06/02 01:10:28;;;;;;;;;;;9.90;99.90;;;;;;4984800;28;36246;-57
2022/06/02 01:13:10;;;;;;;;;;;9.90;99.90;;;;;;4985337;28;38094;-57
2022/06/02 01:15:46;;;;;;;;;;;9.90;99.90;;;;;;4975859;28;37605;-56
2022/06/02 01:18:17;;;;;;;;;;;10.00;99.90;;;;;;4985801;28;37474;-56
2022/06/02 01:20:52;;;;;;;;;;;10.00;99.90;;;;;;4985106;28;35106;-56
2022/06/02 01:23:42;;;;;;;;;;;10.00;99.90;;;;;;4985290;28;38407;-57
2022/06/02 01:26:24;;;;;;;;;;;10.00;99.90;;;;;;4985584;28;38510;-56
2022/06/02 01:28:57;;;;;;;;;;;10.00;99.90;;;;;;4982278;28;38503;-56
2022/06/02 01:31:37;;;;;;;;;;;10.00;99.90;;;;;;4984670;28;36817;-56
2022/06/02 01:34:10;;;;;;;;;;;10.00;99.90;;;;;;4984419;28;36491;-56
2022/06/02 01:36:40;;;;;;;;;;;10.00;99.90;;;;;;4984879;28;38481;-57
2022/06/02 01:39:25;;;;;;;;;;;10.00;99.90;;;;;;4985130;28;37727;-56
2022/06/02 01:41:58;;;;;;;;;;;10.00;99.90;;;;;;4984760;28;38315;-56
2022/06/02 01:44:37;;;;;;;;;;;10.00;99.90;;;;;;4984828;28;36561;-56
2022/06/02 01:47:10;;;;;;;;;;;10.00;99.90;;;;;;4985072;28;38638;-57
2022/06/02 01:49:52;;;;;;;;;;;10.00;99.90;;;;;;4985181;28;36813;-56
2022/06/02 01:52:34;;;;;;;;;;;9.90;99.90;;;;;;4983315;28;36949;-57
2022/06/02 01:55:08;;;;;;;;;;;9.90;99.90;;;;;;4984385;28;38188;-56
2022/06/02 01:57:42;;;;;;;;;;;10.00;99.90;;;;;;4984368;28;38217;-57
2022/06/02 02:00:11;;;;;;;;;;;10.00;99.90;;;;;;4984501;28;38500;-56
2022/06/02 02:02:45;;;;;;;;;;;10.00;99.90;;;;;;4985135;28;36606;-56
2022/06/02 02:05:18;;;;;;;;;;;10.00;99.90;;;;;;4985175;28;38341;-56
2022/06/02 02:07:54;;;;;;;;;;;10.00;99.90;;;;;;4984697;28;39143;-56
2022/06/02 02:10:27;;;;;;;;;;;10.00;99.90;;;;;;4983542;28;38726;-56
2022/06/02 02:12:58;;;;;;;;;;;10.00;99.90;;;;;;4984264;28;37018;-56
2022/06/02 02:15:32;;;;;;;;;;;10.00;99.90;;;;;;4984854;28;31824;-56
2022/06/02 02:18:15;;;;;;;;;;;10.00;99.90;;;;;;4984479;28;38667;-57
2022/06/02 02:20:51;;;;;;;;;;;10.00;99.90;;;;;;4984565;28;37359;-56
2022/06/02 02:23:20;;;;;;;;;;;10.00;99.90;;;;;;4984453;28;36631;-55
2022/06/02 02:25:51;;;;;;;;;;;10.00;99.90;;;;;;4984464;28;36298;-56
2022/06/02 02:28:23;;;;;;;;;;;10.00;99.90;;;;;;4983795;28;36703;-57
2022/06/02 02:30:55;;;;;;;;;;;10.00;99.90;;;;;;4982720;28;36100;-56
2022/06/02 02:33:27;;;;;;;;;;;10.00;99.90;;;;;;4983290;28;36319;-56
2022/06/02 02:35:57;;;;;;;;;;;10.00;99.90;;;;;;4983063;28;39116;-57
2022/06/02 02:38:29;;;;;;;;;;;10.10;99.90;;;;;;4984698;28;40136;-56
2022/06/02 02:41:00;;;;;;;;;;;10.00;99.90;;;;;;4983091;28;37278;-56
2022/06/02 02:43:30;;;;;;;;;;;10.00;99.90;;;;;;4984454;28;36641;-56
2022/06/02 02:46:00;;;;;;;;;;;10.00;99.90;;;;;;4984147;28;38609;-56
2022/06/02 02:48:34;;;;;;;;;;;10.00;99.90;;;;;;4984482;28;39394;-56
2022/06/02 02:51:05;;;;;;;;;;;10.00;99.90;;;;;;4983106;28;37385;-56
2022/06/02 02:53:34;;;;;;;;;;;10.00;99.90;;;;;;4984088;28;36225;-57
2022/06/02 02:56:05;;;;;;;;;;;10.00;99.90;;;;;;4986249;28;37793;-56
2022/06/02 02:58:35;;;;;;;;;;;10.00;99.90;;;;;;4987138;28;39461;-56
2022/06/02 03:01:04;;;;;;;;;;;10.00;99.90;;;;;;4987299;28;36204;-56
2022/06/02 03:03:36;;;;;;;;;;;10.00;99.90;;;;;;4987994;28;35166;-55
2022/06/02 03:06:21;;;;;;;;;;;9.90;99.90;;;;;;4986765;28;37766;-56
2022/06/02 03:08:51;;;;;;;;;;;9.90;99.90;;;;;;4987571;28;38622;-52
2022/06/02 03:11:26;;;;;;;;;;;10.00;99.90;;;;;;4987008;28;37204;-51
2022/06/02 03:13:59;;;;;;;;;;;10.00;99.90;;;;;;4986699;28;36382;-51
2022/06/02 03:16:27;;;;;;;;;;;9.90;99.90;;;;;;4986268;28;37709;-50
2022/06/02 03:19:08;;;;;;;;;;;10.00;99.90;;;;;;4987371;28;37960;-52
2022/06/02 03:21:37;;;;;;;;;;;9.90;99.90;;;;;;4987870;28;40826;-50
2022/06/02 03:24:11;;;;;;;;;;;9.90;99.90;;;;;;4987893;28;34553;-49
2022/06/02 03:26:45;;;;;;;;;;;9.90;99.90;;;;;;4986810;28;39020;-49
2022/06/02 03:29:17;;;;;;;;;;;10.00;99.90;;;;;;4985702;28;38538;-51
2022/06/02 03:31:47;;;;;;;;;;;9.90;99.90;;;;;;4987581;28;37187;-50
2022/06/02 03:34:21;;;;;;;;;;;9.90;99.90;;;;;;4986925;28;36021;-52
2022/06/02 03:37:00;;;;;;;;;;;9.90;99.90;;;;;;4986104;28;36353;-51
2022/06/02 03:39:34;;;;;;;;;;;9.90;99.90;;;;;;4985579;28;37893;-51
2022/06/02 03:42:07;;;;;;;;;;;9.90;99.90;;;;;;4985293;28;37904;-50
2022/06/02 03:44:42;;;;;;;;;;;9.90;99.90;;;;;;4985950;28;37579;-50
2022/06/02 03:47:19;;;;;;;;;;;10.00;99.90;;;;;;4987090;28;36510;-47
2022/06/02 03:50:02;;;;;;;;;;;10.10;99.90;;;;;;4986639;28;39314;-51
2022/06/02 03:52:34;;;;;;;;;;;10.10;99.90;;;;;;4986991;28;37534;-51
2022/06/02 03:55:08;;;;;;;;;;;10.20;99.90;;;;;;4986161;28;37177;-49
2022/06/02 03:57:42;;;;;;;;;;;10.30;99.90;;;;;;4987006;28;37886;-50
2022/06/02 04:00:14;;;;;;;;;;;10.40;99.90;;;;;;4986052;28;37809;-52
2022/06/02 04:02:45;;;;;;;;;;;10.50;99.90;;;;;;4987367;28;37749;-51
2022/06/02 04:05:24;;;;;;;;;;;10.50;99.90;;;;;;4986466;28;36522;-50
2022/06/02 04:07:55;;;;;;;;;;;10.60;99.90;;;;;;4985621;28;39664;-56
2022/06/02 04:10:29;;;;;;;;;;;10.70;99.90;;;;;;4984642;28;38853;-56
2022/06/02 04:16:05;;;;;;;;;;;10.80;99.90;;;;;;4986984;28;36965;-56
2022/06/02 04:18:39;;;;;;;;;;;10.90;99.90;;;;;;4986165;28;37865;-57
2022/06/02 04:21:10;;;;;;;;;;;11.00;99.90;;;;;;4986391;28;37546;-56
2022/06/02 04:23:46;;;;;;;;;;;11.00;99.90;;;;;;4985542;28;35956;-56
2022/06/02 04:26:20;;;;;;;;;;;11.20;99.90;;;;;;4984837;28;36268;-56
2022/06/02 04:28:50;;;;;;;;;;;11.30;99.90;;;;;;4985959;28;37847;-56
2022/06/02 04:31:33;;;;;;;;;;;11.40;99.90;;;;;;4986813;28;37871;-56
2022/06/02 04:34:06;;;;;;;;;;;11.50;99.90;;;;;;4986207;28;36765;-56
2022/06/02 04:36:42;;;;;;;;;;;11.40;99.90;;;;;;4986354;28;35079;-57
2022/06/02 04:39:12;;;;;;;;;;;11.60;99.90;;;;;;4984282;28;38415;-56
2022/06/02 04:41:43;;;;;;;;;;;11.70;99.90;;;;;;4986249;28;36895;-56
2022/06/02 04:44:14;;;;;;;;;;;11.80;99.90;;;;;;4986167;28;39103;-56
2022/06/02 04:46:48;;;;;;;;;;;11.90;99.90;;;;;;4985541;28;39121;-56
2022/06/02 04:49:20;;;;;;;;;;;12.00;99.90;;;;;;4986378;28;37946;-56
2022/06/02 04:51:52;;;;;;;;;;;12.10;99.90;;;;;;4985400;28;37781;-56
2022/06/02 04:59:45;;;;;;;;;;;12.30;99.90;;;;;;3951406;22;19975;-55
2022/06/02 05:02:18;;;;;;;;;;;12.40;99.90;;;;;;4966288;22;37536;-55
2022/06/02 05:04:51;;;;;;;;;;;12.60;99.90;;;;;;5029611;28;37992;-54
2022/06/02 05:07:29;;;;;;;;;;;12.60;99.90;;;;;;5773895;22;37441;31
2022/06/02 05:10:03;;;;;;;;;;;12.80;99.90;;;;;;5514291;22;35254;-46
2022/06/02 05:12:35;;;;;;;;;;;12.80;99.90;;;;;;5024211;28;38509;-51
2022/06/02 05:15:07;;;;;;;;;;;12.90;99.90;;;;;;5027291;28;37410;-46
2022/06/02 05:17:53;;;;;;;;;;;13.00;99.90;;;;;;5026634;28;36449;-47
2022/06/02 05:20:28;;;;;;;;;;;13.10;99.90;;;;;;5025581;28;37658;-49
2022/06/02 05:23:08;;;;;;;;;;;13.20;99.90;;;;;;5022508;28;39056;-46
2022/06/02 05:25:50;;;;;;;;;;;13.30;99.90;;;;;;5023345;28;38307;-48
2022/06/02 05:28:44;;;;;;;;;;;13.40;99.90;;;;;;5024143;28;35883;-46
2022/06/02 05:31:34;;;;;;;;;;;13.50;99.90;;;;;;5023763;28;37942;-46
2022/06/02 05:34:19;;;;;;;;;;;13.60;99.90;;;;;;5025380;28;38228;-47
2022/06/02 05:37:04;;;;;;;;;;;13.70;99.90;;;;;;5011282;28;39815;-47
2022/06/02 05:39:39;;;;;;;;;;;13.70;99.90;;;;;;5014377;28;36216;-46
2022/06/02 05:42:18;;;;;;;;;;;13.80;99.90;;;;;;5020100;28;38502;-49
2022/06/02 05:44:54;;;;;;;;;;;14.00;99.90;;;;;;5022968;28;37999;-48
2022/06/02 05:47:27;;;;;;;;;;;14.00;99.90;;;;;;5025320;28;37433;-50
2022/06/02 05:49:58;;;;;;;;;;;14.20;99.90;;;;;;5025415;28;37211;-47
2022/06/02 05:52:31;;;;;;;;;;;14.20;99.90;;;;;;5023113;28;38901;-47
2022/06/02 05:55:12;;;;;;;;;;;14.30;99.90;;;;;;5024265;28;38853;-46
2022/06/02 05:57:49;;;;;;;;;;;14.40;99.90;;;;;;5024892;28;38615;-46
2022/06/02 06:00:23;;;;;;;;;;;14.40;99.90;;;;;;5023252;28;37086;-49
2022/06/02 06:03:08;;;;;;;;;;;14.50;99.90;;;;;;5022861;28;38571;-47
2022/06/02 06:05:39;;;;;;;;;;;14.50;99.90;;;;;;5025088;28;37724;-46
2022/06/02 06:08:18;;;;;;;;;;;14.60;99.90;;;;;;5025128;28;37850;-48
2022/06/02 06:10:54;;;;;;;;;;;14.70;99.90;;;;;;5025167;28;38450;-48
2022/06/02 06:13:40;;;;;;;;;;;14.80;99.90;;;;;;5027263;28;37863;-47
2022/06/02 06:16:13;;;;;;;;;;;14.80;99.90;;;;;;5025822;28;37758;-49
2022/06/02 06:18:46;;;;;;;;;;;14.80;99.90;;;;;;5026313;28;37423;-48
2022/06/02 06:21:18;;;;;;;;;;;14.90;99.90;;;;;;5026214;28;36054;-50
2022/06/02 06:23:53;;;;;;;;;;;15.00;99.90;;;;;;5025495;28;39123;-47
2022/06/02 06:26:28;;;;;;;;;;;15.10;99.90;;;;;;5025632;28;39479;-47
2022/06/02 06:29:12;;;;;;;;;;;15.20;99.30;;;;;;5026378;28;37572;-51
2022/06/02 06:31:47;;;;;;;;;;;15.20;99.90;;;;;;5024951;28;38256;-47
2022/06/02 06:34:19;;;;;;;;;;;15.30;99.70;;;;;;5026022;28;36700;-49
2022/06/02 06:36:57;;;;;;;;;;;15.30;99.40;;;;;;5026086;28;37661;-50
2022/06/02 06:39:29;;;;;;;;;;;15.40;99.20;;;;;;5024779;28;37493;-47
2022/06/02 06:42:19;;;;;;;;;;;15.40;98.90;;;;;;5025713;28;36533;-47
2022/06/02 06:44:50;;;;;;;;;;;15.50;98.60;;;;;;5025156;28;37884;-51
2022/06/02 06:47:21;;;;;;;;;;;15.50;98.50;;;;;;5025972;28;38840;-48
2022/06/02 06:49:52;;;;;;;;;;;15.50;98.00;;;;;;5024809;28;39185;-48
2022/06/02 06:52:26;;;;;;;;;;;15.50;98.20;;;;;;5025812;28;35604;-49
2022/06/02 06:54:55;;;;;;;;;;;15.50;98.40;;;;;;5024444;28;37894;-47
2022/06/02 06:57:25;;;;;;;;;;;15.40;98.00;;;;;;5025198;28;38115;-47
2022/06/02 06:59:59;;;;;;;;;;;15.30;97.40;;;;;;5028132;28;37261;-48
2022/06/02 07:02:34;;;;;;;;;;;15.20;98.00;;;;;;5027368;28;35154;-50
2022/06/02 07:05:06;;;;;;;;;;;15.20;98.90;;;;;;5026685;28;37362;-47
2022/06/02 07:07:36;;;;;;;;;;;15.20;99.80;;;;;;5028470;28;37749;-50
2022/06/02 07:10:07;;;;;;;;;;;15.20;99.10;;;;;;5018299;28;37592;-47
2022/06/02 07:12:53;;;;;;;;;;;15.10;98.80;;;;;;5027069;28;37176;-47
2022/06/02 07:15:25;;;;;;;;;;;15.00;98.80;;;;;;5026803;28;38872;-47
2022/06/02 07:18:04;;;;;;;;;;;14.90;99.40;;;;;;5026450;28;39093;-47
2022/06/02 07:20:33;;;;;;;;;;;14.80;99.30;;;;;;5027163;28;37471;-49
2022/06/02 07:23:05;;;;;;;;;;;14.80;99.70;;;;;;5026269;28;37181;-49
2022/06/02 07:25:39;;;;;;;;;;;14.70;99.30;;;;;;5027569;28;37797;-49
2022/06/02 07:28:08;;;;;;;;;;;14.70;99.90;;;;;;5026165;28;37840;-48
2022/06/02 07:30:46;;;;;;;;;;;14.60;99.80;;;;;;5027167;28;37643;-47
2022/06/02 07:33:27;;;;;;;;;;;14.70;99.90;;;;;;5026580;28;37613;-48
2022/06/02 07:36:09;;;;;;;;;;;14.80;99.90;;;;;;5027923;28;38807;-49
2022/06/02 07:38:52;;;;;;;;;;;15.10;99.90;;;;;;5023485;28;37627;-48
2022/06/02 07:41:28;;;;;;;;;;;15.20;99.50;;;;;;5028401;28;36919;-47
2022/06/02 07:44:05;;;;;;;;;;;15.20;98.90;;;;;;5030655;28;36816;-48
2022/06/02 07:46:50;;;;;;;;;;;15.00;98.70;;;;;;5031063;28;38501;-48
2022/06/02 07:49:31;;;;;;;;;;;15.00;98.60;;;;;;5031050;28;38111;-48
2022/06/02 07:52:05;;;;;;;;;;;15.00;98.80;;;;;;5030453;28;36008;-50
2022/06/02 07:54:39;;;;;;;;;;;15.00;99.10;;;;;;5031206;28;36830;-48
2022/06/02 07:57:12;;;;;;;;;;;15.10;98.80;;;;;;5029820;28;38977;-50
2022/06/02 07:59:45;;;;;;;;;;;15.10;98.80;;;;;;5030226;28;37515;-50
2022/06/02 08:02:24;;;;;;;;;;;15.10;99.00;;;;;;5029961;28;37449;-50
2022/06/02 08:04:56;;;;;;;;;;;15.20;98.80;;;;;;5031058;28;36232;-48
2022/06/02 08:07:26;;;;;;;;;;;15.40;99.10;;;;;;5029969;28;37533;-49
2022/06/02 08:09:59;;;;;;;;;;;15.50;97.90;;;;;;5029875;28;38975;-47
2022/06/02 08:12:28;;;;;;;;;;;15.40;97.60;;;;;;5030990;28;37584;-48
2022/06/02 08:15:02;;;;;;;;;;;15.30;97.80;;;;;;5030836;28;37682;-49
2022/06/02 08:17:31;;;;;;;;;;;15.20;97.80;;;;;;5029592;28;38522;-49
2022/06/02 08:20:06;;;;;;;;;;;15.10;97.70;;;;;;5029462;28;37994;-50
2022/06/02 08:22:37;;;;;;;;;;;15.20;99.10;;;;;;5030164;28;37336;-48
2022/06/02 08:25:08;;;;;;;;;;;15.40;98.90;;;;;;5021461;28;37226;-50
2022/06/02 08:27:51;;;;;;;;;;;15.50;98.20;;;;;;5027910;28;37831;-48
2022/06/02 08:30:20;;;;;;;;;;;15.50;98.00;;;;;;5028196;28;36478;-50
2022/06/02 08:33:00;;;;;;;;;;;15.60;98.80;;;;;;5030470;28;35896;-47
2022/06/02 08:35:32;;;;;;;;;;;15.60;97.60;;;;;;5029020;28;36126;-48
2022/06/02 08:38:04;;;;;;;;;;;15.50;98.00;;;;;;5029356;28;36359;-47
2022/06/02 08:40:49;;;;;;;;;;;15.40;98.00;;;;;;5028338;28;36146;-50
2022/06/02 08:43:29;;;;;;;;;;;15.40;98.80;;;;;;5027929;28;38087;-47
2022/06/02 08:46:26;;;;;;;;;;;15.50;99.90;;;;;;5028874;28;36507;-48
2022/06/02 08:49:09;;;;;;;;;;;15.60;99.20;;;;;;5029595;28;36554;-48
2022/06/02 08:51:59;;;;;;;;;;;15.60;98.40;;;;;;5029156;28;37532;-48
2022/06/02 08:54:47;;;;;;;;;;;15.50;98.20;;;;;;5029633;28;37464;-47
2022/06/02 08:57:28;;;;;;;;;;;15.80;98.40;;;;;;5028186;28;37965;-49
2022/06/02 09:00:12;;;;;;;;;;;16.10;99.20;;;;;;5029293;28;38389;-48
2022/06/02 09:02:58;;;;;;;;;;;16.40;97.10;;;;;;5029362;28;38617;-47
2022/06/02 09:05:55;;;;;;;;;;;16.60;97.10;;;;;;5028030;28;38730;-48
2022/06/02 09:08:37;;;;;;;;;;;16.90;97.30;;;;;;4964249;28;37216;-50
2022/06/02 09:11:22;;;;;;;;;;;17.20;95.80;;;;;;5018428;28;37530;-47
2022/06/02 09:14:11;;;;;;;;;;;17.30;95.60;;;;;;5029112;28;39338;-50
2022/06/02 09:16:45;;;;;;;;;;;17.20;94.30;;;;;;5027740;28;38200;-48
2022/06/02 09:19:31;;;;;;;;;;;17.00;94.10;;;;;;5029068;28;36123;-48
2022/06/02 09:22:02;;;;;;;;;;;16.90;95.70;;;;;;5028860;28;36405;-49
2022/06/02 09:24:33;;;;;;;;;;;17.00;96.60;;;;;;5027409;28;38078;-52
2022/06/02 09:27:19;;;;;;;;;;;17.20;95.20;;;;;;5027695;28;36832;-49
2022/06/02 09:29:49;;;;;;;;;;;17.40;95.70;;;;;;5028264;28;37051;-48
2022/06/02 09:32:28;;;;;;;;;;;17.30;94.30;;;;;;5025258;28;36319;-49
2022/06/02 09:35:11;;;;;;;;;;;17.20;95.10;;;;;;5026030;28;38820;-49
2022/06/02 09:37:52;;;;;;;;;;;17.00;95.10;;;;;;5027186;28;36979;-48
2022/06/02 09:40:27;;;;;;;;;;;16.90;95.80;;;;;;5026686;28;36833;-49
2022/06/02 09:43:11;;;;;;;;;;;16.80;95.10;;;;;;5027341;28;37817;-48
2022/06/02 09:45:46;;;;;;;;;;;16.70;94.80;;;;;;5027136;28;38586;-47
2022/06/02 09:48:17;;;;;;;;;;;16.80;96.20;;;;;;5026151;28;37094;-50
2022/06/02 09:50:58;;;;;;;;;;;17.00;96.30;;;;;;5027760;28;37688;-50
2022/06/02 09:53:51;;;;;;;;;;;17.20;97.20;;;;;;5026862;28;37468;-48
2022/06/02 09:56:30;;;;;;;;;;;17.20;95.40;;;;;;5006464;28;38287;-51
2022/06/02 09:59:02;;;;;;;;;;;17.20;96.00;;;;;;5027950;28;37281;-51
2022/06/02 10:01:36;;;;;;;;;;;17.30;95.40;;;;;;5028286;28;37661;-48
2022/06/02 10:04:20;;;;;;;;;;;17.30;95.40;;;;;;5026969;28;38317;-48
2022/06/02 10:06:58;;;;;;;;;;;17.30;95.10;;;;;;5027735;28;39050;-49
2022/06/02 10:09:28;;;;;;;;;;;17.20;94.60;;;;;;5026155;28;37369;-49
2022/06/02 10:14:53;;;;;;;;;;;17.20;95.80;;;;;;5027323;28;38188;-50
2022/06/02 10:17:28;;;;;;;;;;;17.20;94.50;;;;;;5027756;28;38840;-50
2022/06/02 10:20:15;;;;;;;;;;;17.40;94.90;;;;;;5028715;28;37427;-49
2022/06/02 10:22:51;;;;;;;;;;;17.40;94.50;;;;;;5022070;28;36465;-50
2022/06/02 10:25:26;;;;;;;;;;;17.50;93.30;;;;;;5028785;28;37592;-50
2022/06/02 10:28:05;;;;;;;;;;;17.50;93.70;;;;;;5027085;28;38082;-49
2022/06/02 10:30:44;;;;;;;;;;;17.30;92.90;;;;;;5028130;28;36401;-49
2022/06/02 10:33:28;;;;;;;;;;;17.20;93.90;;;;;;5028247;28;36513;-51
2022/06/02 10:36:10;;;;;;;;;;;17.30;95.20;;;;;;5026413;28;37617;-50
2022/06/02 10:38:42;;;;;;;;;;;17.50;95.00;;;;;;5024477;28;38911;-49
2022/06/02 10:41:17;;;;;;;;;;;17.80;95.80;;;;;;5027294;28;36767;-50
2022/06/02 10:43:59;;;;;;;;;;;18.20;94.60;;;;;;5026049;28;35126;-49
2022/06/02 10:46:38;;;;;;;;;;;18.40;93.70;;;;;;5014951;28;38394;-51
2022/06/02 10:49:13;;;;;;;;;;;18.50;94.00;;;;;;5024486;28;36775;-49
2022/06/02 10:52:03;;;;;;;;;;;18.50;92.70;;;;;;5023972;28;36227;-50
2022/06/02 10:54:38;;;;;;;;;;;18.40;93.30;;;;;;5023858;28;36459;-51
2022/06/02 10:57:19;;;;;;;;;;;18.20;92.20;;;;;;5023554;28;38596;-51
2022/06/02 11:00:02;;;;;;;;;;;18.10;93.50;;;;;;5023467;28;38517;-50
2022/06/02 11:02:59;;;;;;;;;;;18.10;93.70;;;;;;5023020;28;37455;-50
2022/06/02 11:05:47;;;;;;;;;;;18.30;94.30;;;;;;5022478;28;35743;-48
2022/06/02 11:08:34;;;;;;;;;;;18.30;93.50;;;;;;5021342;28;39721;-50
2022/06/02 11:11:08;;;;;;;;;;;18.30;92.30;;;;;;5022097;28;37979;-50
2022/06/02 11:13:59;;;;;;;;;;;18.00;92.00;;;;;;5022266;28;37420;-52
2022/06/02 11:16:47;;;;;;;;;;;18.00;92.90;;;;;;5022098;28;36937;-48
2022/06/02 11:19:32;;;;;;;;;;;18.10;95.10;;;;;;5013215;28;37763;-51
2022/06/02 11:22:10;;;;;;;;;;;18.30;95.20;;;;;;5025382;28;37397;-49
2022/06/02 11:24:56;;;;;;;;;;;18.50;93.80;;;;;;5025827;28;38197;-51
2022/06/02 11:27:31;;;;;;;;;;;18.70;93.20;;;;;;5026333;28;37250;-51
2022/06/02 11:30:15;;;;;;;;;;;18.80;92.60;;;;;;5026417;28;38819;-48
2022/06/02 11:32:49;;;;;;;;;;;18.70;91.10;;;;;;5024580;28;38168;-50
2022/06/02 11:35:34;;;;;;;;;;;18.40;90.70;;;;;;5023536;28;36859;-50
2022/06/02 11:38:28;;;;;;;;;;;18.30;93.40;;;;;;4988003;28;35481;-53
2022/06/02 11:41:13;;;;;;;;;;;18.30;91.30;;;;;;5026886;28;38000;-51
2022/06/02 11:43:47;;;;;;;;;;;18.40;92.30;;;;;;5023967;28;37085;-52
2022/06/02 11:46:33;;;;;;;;;;;18.40;91.90;;;;;;5025417;28;36576;-50
2022/06/02 11:49:18;;;;;;;;;;;18.40;92.30;;;;;;5025714;28;36848;-50
2022/06/02 11:52:02;;;;;;;;;;;18.40;92.70;;;;;;4976108;28;37989;-48
2022/06/02 11:54:56;;;;;;;;;;;18.50;94.10;;;;;;5027345;28;37330;-52
2022/06/02 11:57:30;;;;;;;;;;;18.60;93.10;;;;;;4992726;28;38953;-52
2022/06/02 12:00:18;;;;;;;;;;;18.50;92.20;;;;;;5027317;28;37041;-50
2022/06/02 12:03:00;;;;;;;;;;;18.30;91.40;;;;;;4999512;28;38297;-50
2022/06/02 12:05:39;;;;;;;;;;;18.20;92.50;;;;;;5025980;28;37720;-51
2022/06/02 12:08:27;;;;;;;;;;;18.20;91.80;;;;;;5027294;28;37410;-49
2022/06/02 12:11:02;;;;;;;;;;;18.10;91.20;;;;;;5025859;28;35066;-52
2022/06/02 12:13:40;;;;;;;;;;;18.00;93.30;;;;;;5025338;28;36431;-52
2022/06/02 12:16:28;;;;;;;;;;;18.00;92.70;;;;;;5025648;28;39171;-51
2022/06/02 12:19:04;;;;;;;;;;;17.90;90.70;;;;;;5026084;28;37435;-51
2022/06/02 12:21:39;;;;;;;;;;;17.80;92.80;;;;;;5025486;28;37732;-50
2022/06/02 12:24:14;;;;;;;;;;;17.80;90.60;;;;;;5029580;28;38779;-49
2022/06/02 12:26:49;;;;;;;;;;;17.80;92.70;;;;;;5029766;28;37728;-51
2022/06/02 12:29:26;;;;;;;;;;;17.80;94.40;;;;;;5023839;28;37984;-50
2022/06/02 12:32:06;;;;;;;;;;;18.00;93.20;;;;;;5024797;28;38199;-49
2022/06/02 12:35:03;;;;;;;;;;;18.10;93.60;;;;;;5025166;28;37535;-49
2022/06/02 12:37:37;;;;;;;;;;;18.20;94.10;;;;;;5024982;28;38283;-50
2022/06/02 12:40:20;;;;;;;;;;;18.20;92.60;;;;;;5024359;28;37207;-49
2022/06/02 12:42:59;;;;;;;;;;;18.30;93.10;;;;;;5025018;28;36227;-50
2022/06/02 12:45:38;;;;;;;;;;;18.20;92.30;;;;;;5024283;28;38068;-49
2022/06/02 12:48:18;;;;;;;;;;;18.10;93.10;;;;;;5024128;28;38789;-52
2022/06/02 12:50:52;;;;;;;;;;;18.10;93.60;;;;;;5023574;28;38584;-51
2022/06/02 12:53:37;;;;;;;;;;;18.20;93.50;;;;;;5024980;28;35768;-51
2022/06/02 12:56:09;;;;;;;;;;;18.30;93.70;;;;;;5023528;28;38564;-52
2022/06/02 12:58:53;;;;;;;;;;;18.30;92.50;;;;;;5024216;28;37696;-51
2022/06/02 13:01:35;;;;;;;;;;;18.30;93.10;;;;;;5025632;28;37953;-49
2022/06/02 13:04:23;;;;;;;;;;;18.40;93.00;;;;;;5025990;28;37029;-51
2022/06/02 13:07:20;;;;;;;;;;;18.40;92.40;;;;;;5025870;28;37133;-49
2022/06/02 13:10:08;;;;;;;;;;;18.40;93.00;;;;;;4963074;28;37499;-49
2022/06/02 13:12:52;;;;;;;;;;;18.50;93.40;;;;;;4991690;28;37496;-51
2022/06/02 13:15:38;;;;;;;;;;;18.50;92.60;;;;;;5023459;28;37391;-51
2022/06/02 13:18:15;;;;;;;;;;;18.50;93.20;;;;;;5025511;28;36440;-52
2022/06/02 13:21:09;;;;;;;;;;;18.50;93.10;;;;;;5026344;28;36683;-49
2022/06/02 13:23:56;;;;;;;;;;;18.60;93.00;;;;;;5025679;28;37589;-52
2022/06/02 13:26:44;;;;;;;;;;;18.60;91.70;;;;;;5025692;28;36412;-50
2022/06/02 13:29:32;;;;;;;;;;;18.50;90.70;;;;;;5030024;28;36349;-51
2022/06/02 13:32:16;;;;;;;;;;;18.40;91.70;;;;;;5022630;28;40005;-49
2022/06/02 13:35:14;;;;;;;;;;;18.30;92.40;;;;;;5026185;28;38489;-48
2022/06/02 13:38:00;;;;;;;;;;;18.30;92.30;;;;;;5025939;28;36581;-52
2022/06/02 13:40:31;;;;;;;;;;;18.30;92.30;;;;;;5024189;28;37377;-49
2022/06/02 13:43:20;;;;;;;;;;;18.20;92.80;;;;;;5026077;28;36043;-51
2022/06/02 13:45:58;;;;;;;;;;;18.20;92.40;;;;;;5026239;28;37470;-49
2022/06/02 13:48:45;;;;;;;;;;;18.20;93.30;;;;;;5025969;28;36579;-48
2022/06/02 13:51:30;;;;;;;;;;;18.10;92.50;;;;;;5022687;28;36560;-53
2022/06/02 14:00:02;;;;;;;;;;;18.10;93.30;;;;;;5025849;28;37160;-51
2022/06/02 14:02:44;;;;;;;;;;;18.00;94.20;;;;;;5024293;28;38288;-50
2022/06/02 14:05:18;;;;;;;;;;;18.00;93.40;;;;;;5021825;28;37435;-47
2022/06/02 14:07:51;;;;;;;;;;;18.00;93.00;;;;;;5024250;28;38306;-50
2022/06/02 14:10:31;;;;;;;;;;;17.90;93.10;;;;;;5024336;28;35053;-51
2022/06/02 14:13:19;;;;;;;;;;;17.90;92.50;;;;;;5024593;28;39058;-53
2022/06/02 14:15:52;;;;;;;;;;;17.90;92.90;;;;;;4993220;28;38620;-52
2022/06/02 14:18:33;;;;;;;;;;;17.80;92.60;;;;;;5025082;28;36782;-49
2022/06/02 14:21:05;;;;;;;;;;;17.70;92.50;;;;;;5025880;28;36489;-50
2022/06/02 14:23:43;;;;;;;;;;;17.60;93.00;;;;;;5025684;28;36508;-48
2022/06/02 14:26:17;;;;;;;;;;;17.60;93.80;;;;;;5024086;28;38328;-53
2022/06/02 14:28:54;;;;;;;;;;;17.60;94.00;;;;;;5025769;28;37066;-51
2022/06/02 14:31:28;;;;;;;;;;;17.60;94.10;;;;;;5024987;28;36041;-49
2022/06/02 14:33:59;;;;;;;;;;;17.60;93.90;;;;;;5025220;28;37864;-52
2022/06/02 14:36:29;;;;;;;;;;;17.60;94.30;;;;;;5024667;28;39301;-52
2022/06/02 14:39:02;;;;;;;;;;;17.60;94.10;;;;;;5025377;28;37563;-49
2022/06/02 14:41:35;;;;;;;;;;;17.60;93.00;;;;;;5025514;28;36687;-51
2022/06/02 14:44:13;;;;;;;;;;;17.60;93.20;;;;;;5024075;28;36321;-49
2022/06/02 14:46:49;;;;;;;;;;;17.60;94.00;;;;;;5024687;28;36236;-51
2022/06/02 14:49:29;;;;;;;;;;;17.60;93.00;;;;;;5025273;28;38383;-50
2022/06/02 14:52:03;;;;;;;;;;;17.60;93.50;;;;;;5026728;28;36036;-53
2022/06/02 14:54:41;;;;;;;;;;;17.60;92.90;;;;;;5027583;28;38553;-52
2022/06/02 14:57:24;;;;;;;;;;;17.50;92.40;;;;;;5027584;28;37869;-50
2022/06/02 15:00:04;;;;;;;;;;;17.40;92.00;;;;;;5028172;28;38441;-51
2022/06/02 15:02:49;;;;;;;;;;;17.40;93.30;;;;;;5029054;28;36052;-50
2022/06/02 15:05:24;;;;;;;;;;;17.40;92.70;;;;;;5028370;28;37553;-50
2022/06/02 15:07:59;;;;;;;;;;;17.30;92.60;;;;;;5028670;28;38142;-51
2022/06/02 15:10:30;;;;;;;;;;;17.20;92.70;;;;;;5020997;28;37367;-51
2022/06/02 15:13:08;;;;;;;;;;;17.20;93.60;;;;;;5016996;28;37221;-52
2022/06/02 15:15:41;;;;;;;;;;;17.20;92.90;;;;;;5016771;28;37996;-49
2022/06/02 15:18:17;;;;;;;;;;;17.20;92.60;;;;;;5015858;28;39542;-52
2022/06/02 15:20:51;;;;;;;;;;;17.20;92.00;;;;;;5015717;28;37118;-52
2022/06/02 15:23:37;;;;;;;;;;;17.10;91.70;;;;;;5015906;28;36460;-51
2022/06/02 15:26:10;;;;;;;;;;;17.10;91.00;;;;;;5015875;28;39152;-52
2022/06/02 15:29:01;;;;;;;;;;;17.10;91.50;;;;;;5015699;28;38488;-52
2022/06/02 15:31:32;;;;;;;;;;;17.00;91.40;;;;;;4999575;28;37206;-51
2022/06/02 15:34:24;;;;;;;;;;;17.00;91.30;;;;;;5015044;28;36629;-53
2022/06/02 15:37:09;;;;;;;;;;;17.00;90.90;;;;;;5015037;28;37838;-50